sensor_id;sensor_type;location;lat;lon;timestamp;P1;durP1;ratioP1;P2;durP2;ratioP2
27740;SDS011;15134;48.768;9.184;2024-03-22T00:01:47;877.67;;;781.72;;
27740;SDS011;15134;48.768;9.184;2024-03-22T00:04:13;874.58;;;778.72;;
27740;SDS011;15134;48.768;9.184;2024-03-22T00:06:42;876.60;;;780.83;;
27740;SDS011;15134;48.768;9.184;2024-03-22T00:09:13;874.97;;;779.08;;
27740;SDS011;15134;48.768;9.184;2024-03-22T00:11:39;874.70;;;778.92;;
27740;SDS011;15134;48.768;9.184;2024-03-22T00:14:06;874.25;;;778.40;;
27740;SDS011;15134;48.768;9.184;2024-03-22T00:16:32;876.22;;;780.13;;
27740;SDS011;15134;48.768;9.184;2024-03-22T00:18:58;861.08;;;765.78;;
27740;SDS011;15134;48.768;9.184;2024-03-22T00:21:24;872.10;;;776.28;;
27740;SDS011;15134;48.768;9.184;2024-03-22T00:23:50;873.88;;;777.97;;
27740;SDS011;15134;48.768;9.184;2024-03-22T00:26:15;868.88;;;773.17;;
27740;SDS011;15134;48.768;9.184;2024-03-22T00:28:41;867.67;;;772.00;;
27740;SDS011;15134;48.768;9.184;2024-03-22T00:31:08;870.13;;;774.50;;
27740;SDS011;15134;48.768;9.184;2024-03-22T00:33:34;868.23;;;772.60;;
27740;SDS011;15134;48.768;9.184;2024-03-22T00:35:59;863.58;;;768.30;;
27740;SDS011;15134;48.768;9.184;2024-03-22T00:38:25;864.97;;;769.38;;
27740;SDS011;15134;48.768;9.184;2024-03-22T00:40:51;861.90;;;766.45;;
27740;SDS011;15134;48.768;9.184;2024-03-22T00:43:17;870.20;;;774.53;;
27740;SDS011;15134;48.768;9.184;2024-03-22T00:45:43;865.93;;;770.73;;
27740;SDS011;15134;48.768;9.184;2024-03-22T00:48:08;857.20;;;761.70;;
27740;SDS011;15134;48.768;9.184;2024-03-22T00:50:34;865.57;;;770.10;;
27740;SDS011;15134;48.768;9.184;2024-03-22T00:53:00;861.03;;;765.57;;
27740;SDS011;15134;48.768;9.184;2024-03-22T00:55:28;855.83;;;759.60;;
27740;SDS011;15134;48.768;9.184;2024-03-22T00:57:54;855.47;;;756.75;;
27740;SDS011;15134;48.768;9.184;2024-03-22T01:00:19;857.13;;;761.92;;
27740;SDS011;15134;48.768;9.184;2024-03-22T01:02:46;858.13;;;758.95;;
27740;SDS011;15134;48.768;9.184;2024-03-22T01:05:11;854.15;;;753.72;;
27740;SDS011;15134;48.768;9.184;2024-03-22T01:07:37;854.17;;;749.33;;
27740;SDS011;15134;48.768;9.184;2024-03-22T01:10:03;854.28;;;748.97;;
27740;SDS011;15134;48.768;9.184;2024-03-22T01:12:30;855.65;;;751.13;;
27740;SDS011;15134;48.768;9.184;2024-03-22T01:14:56;852.92;;;750.33;;
27740;SDS011;15134;48.768;9.184;2024-03-22T01:17:22;850.38;;;745.80;;
27740;SDS011;15134;48.768;9.184;2024-03-22T01:19:48;848.27;;;742.40;;
27740;SDS011;15134;48.768;9.184;2024-03-22T01:22:13;850.60;;;746.30;;
27740;SDS011;15134;48.768;9.184;2024-03-22T01:24:39;850.55;;;746.97;;
27740;SDS011;15134;48.768;9.184;2024-03-22T01:27:05;847.85;;;743.65;;
27740;SDS011;15134;48.768;9.184;2024-03-22T01:29:31;846.42;;;742.00;;
27740;SDS011;15134;48.768;9.184;2024-03-22T01:31:59;849.87;;;743.87;;
27740;SDS011;15134;48.768;9.184;2024-03-22T01:34:25;848.90;;;744.15;;
27740;SDS011;15134;48.768;9.184;2024-03-22T01:36:51;847.30;;;738.57;;
27740;SDS011;15134;48.768;9.184;2024-03-22T01:39:18;849.17;;;746.03;;
27740;SDS011;15134;48.768;9.184;2024-03-22T01:41:49;849.95;;;743.90;;
27740;SDS011;15134;48.768;9.184;2024-03-22T01:44:16;847.72;;;739.50;;
27740;SDS011;15134;48.768;9.184;2024-03-22T01:46:43;847.75;;;738.00;;
27740;SDS011;15134;48.768;9.184;2024-03-22T01:49:11;843.15;;;734.33;;
27740;SDS011;15134;48.768;9.184;2024-03-22T01:51:41;848.72;;;741.67;;
27740;SDS011;15134;48.768;9.184;2024-03-22T01:54:10;846.28;;;740.65;;
27740;SDS011;15134;48.768;9.184;2024-03-22T01:56:36;847.30;;;742.60;;
27740;SDS011;15134;48.768;9.184;2024-03-22T01:59:04;846.70;;;739.55;;
27740;SDS011;15134;48.768;9.184;2024-03-22T02:01:30;847.13;;;738.40;;
27740;SDS011;15134;48.768;9.184;2024-03-22T02:03:57;843.60;;;732.03;;
27740;SDS011;15134;48.768;9.184;2024-03-22T02:06:22;843.47;;;733.20;;
27740;SDS011;15134;48.768;9.184;2024-03-22T02:08:48;850.50;;;746.45;;
27740;SDS011;15134;48.768;9.184;2024-03-22T02:11:14;845.20;;;735.78;;
27740;SDS011;15134;48.768;9.184;2024-03-22T02:13:40;846.73;;;737.50;;
27740;SDS011;15134;48.768;9.184;2024-03-22T02:16:05;841.78;;;728.60;;
27740;SDS011;15134;48.768;9.184;2024-03-22T02:18:31;843.50;;;731.85;;
27740;SDS011;15134;48.768;9.184;2024-03-22T02:20:57;844.70;;;735.75;;
27740;SDS011;15134;48.768;9.184;2024-03-22T02:23:36;844.97;;;732.33;;
27740;SDS011;15134;48.768;9.184;2024-03-22T02:26:03;845.05;;;735.33;;
27740;SDS011;15134;48.768;9.184;2024-03-22T02:28:29;845.33;;;735.03;;
27740;SDS011;15134;48.768;9.184;2024-03-22T02:30:57;843.60;;;728.13;;
27740;SDS011;15134;48.768;9.184;2024-03-22T02:33:23;846.22;;;736.45;;
27740;SDS011;15134;48.768;9.184;2024-03-22T02:35:49;846.07;;;736.27;;
27740;SDS011;15134;48.768;9.184;2024-03-22T02:38:15;845.47;;;729.65;;
27740;SDS011;15134;48.768;9.184;2024-03-22T02:40:45;846.30;;;730.17;;
27740;SDS011;15134;48.768;9.184;2024-03-22T02:43:11;842.60;;;728.65;;
27740;SDS011;15134;48.768;9.184;2024-03-22T02:45:38;846.45;;;735.70;;
27740;SDS011;15134;48.768;9.184;2024-03-22T02:48:04;844.40;;;727.83;;
27740;SDS011;15134;48.768;9.184;2024-03-22T02:50:33;843.65;;;726.63;;
27740;SDS011;15134;48.768;9.184;2024-03-22T02:52:59;845.28;;;736.28;;
27740;SDS011;15134;48.768;9.184;2024-03-22T02:55:25;843.03;;;724.72;;
27740;SDS011;15134;48.768;9.184;2024-03-22T02:57:51;843.27;;;728.20;;
27740;SDS011;15134;48.768;9.184;2024-03-22T03:00:17;843.40;;;725.65;;
27740;SDS011;15134;48.768;9.184;2024-03-22T03:02:43;843.67;;;726.90;;
27740;SDS011;15134;48.768;9.184;2024-03-22T03:05:10;842.35;;;722.88;;
27740;SDS011;15134;48.768;9.184;2024-03-22T03:07:36;846.87;;;726.40;;
27740;SDS011;15134;48.768;9.184;2024-03-22T03:10:02;841.20;;;725.10;;
27740;SDS011;15134;48.768;9.184;2024-03-22T03:12:28;843.35;;;729.15;;
27740;SDS011;15134;48.768;9.184;2024-03-22T03:14:53;843.92;;;730.22;;
27740;SDS011;15134;48.768;9.184;2024-03-22T03:17:19;842.17;;;728.83;;
27740;SDS011;15134;48.768;9.184;2024-03-22T03:19:45;843.03;;;730.20;;
27740;SDS011;15134;48.768;9.184;2024-03-22T03:22:10;839.77;;;722.00;;
27740;SDS011;15134;48.768;9.184;2024-03-22T03:24:36;844.38;;;730.72;;
27740;SDS011;15134;48.768;9.184;2024-03-22T03:27:02;842.45;;;727.47;;
27740;SDS011;15134;48.768;9.184;2024-03-22T03:29:28;840.55;;;723.45;;
27740;SDS011;15134;48.768;9.184;2024-03-22T03:31:53;841.90;;;727.47;;
27740;SDS011;15134;48.768;9.184;2024-03-22T03:34:19;841.20;;;723.50;;
27740;SDS011;15134;48.768;9.184;2024-03-22T03:36:45;843.25;;;732.75;;
27740;SDS011;15134;48.768;9.184;2024-03-22T03:39:11;844.97;;;731.28;;
27740;SDS011;15134;48.768;9.184;2024-03-22T03:41:37;840.72;;;723.42;;
27740;SDS011;15134;48.768;9.184;2024-03-22T03:44:03;841.83;;;725.47;;
27740;SDS011;15134;48.768;9.184;2024-03-22T03:46:29;842.73;;;725.30;;
27740;SDS011;15134;48.768;9.184;2024-03-22T03:48:55;844.00;;;732.40;;
27740;SDS011;15134;48.768;9.184;2024-03-22T03:51:20;843.17;;;724.43;;
27740;SDS011;15134;48.768;9.184;2024-03-22T03:53:46;843.90;;;724.83;;
27740;SDS011;15134;48.768;9.184;2024-03-22T03:56:12;840.40;;;723.45;;
27740;SDS011;15134;48.768;9.184;2024-03-22T03:58:37;839.72;;;723.33;;
27740;SDS011;15134;48.768;9.184;2024-03-22T04:01:06;839.42;;;721.17;;
27740;SDS011;15134;48.768;9.184;2024-03-22T04:03:33;842.72;;;726.38;;
27740;SDS011;15134;48.768;9.184;2024-03-22T04:05:59;840.30;;;723.10;;
27740;SDS011;15134;48.768;9.184;2024-03-22T04:08:25;839.15;;;719.15;;
27740;SDS011;15134;48.768;9.184;2024-03-22T04:10:52;841.97;;;723.08;;
27740;SDS011;15134;48.768;9.184;2024-03-22T04:13:18;839.03;;;719.78;;
27740;SDS011;15134;48.768;9.184;2024-03-22T04:15:44;839.17;;;718.80;;
27740;SDS011;15134;48.768;9.184;2024-03-22T04:18:09;842.57;;;722.97;;
27740;SDS011;15134;48.768;9.184;2024-03-22T04:20:35;839.75;;;719.47;;
27740;SDS011;15134;48.768;9.184;2024-03-22T04:23:01;837.67;;;715.83;;
27740;SDS011;15134;48.768;9.184;2024-03-22T04:25:26;839.88;;;721.83;;
27740;SDS011;15134;48.768;9.184;2024-03-22T04:27:52;840.05;;;718.42;;
27740;SDS011;15134;48.768;9.184;2024-03-22T04:30:18;839.87;;;723.77;;
27740;SDS011;15134;48.768;9.184;2024-03-22T04:32:45;838.83;;;719.87;;
27740;SDS011;15134;48.768;9.184;2024-03-22T04:35:12;851.60;;;723.42;;
27740;SDS011;15134;48.768;9.184;2024-03-22T04:37:38;838.88;;;720.92;;
27740;SDS011;15134;48.768;9.184;2024-03-22T04:40:03;836.50;;;712.27;;
27740;SDS011;15134;48.768;9.184;2024-03-22T04:42:30;841.78;;;726.13;;
27740;SDS011;15134;48.768;9.184;2024-03-22T04:44:55;841.23;;;723.83;;
27740;SDS011;15134;48.768;9.184;2024-03-22T04:47:22;838.85;;;721.08;;
27740;SDS011;15134;48.768;9.184;2024-03-22T04:49:48;840.25;;;722.78;;
27740;SDS011;15134;48.768;9.184;2024-03-22T04:52:14;841.20;;;726.83;;
27740;SDS011;15134;48.768;9.184;2024-03-22T04:54:40;839.75;;;721.47;;
27740;SDS011;15134;48.768;9.184;2024-03-22T04:57:06;838.10;;;718.60;;
27740;SDS011;15134;48.768;9.184;2024-03-22T04:59:31;836.88;;;718.58;;
27740;SDS011;15134;48.768;9.184;2024-03-22T05:01:57;837.72;;;717.35;;
27740;SDS011;15134;48.768;9.184;2024-03-22T05:04:23;836.72;;;715.88;;
27740;SDS011;15134;48.768;9.184;2024-03-22T05:06:49;839.28;;;724.78;;
27740;SDS011;15134;48.768;9.184;2024-03-22T05:09:14;840.95;;;725.50;;
27740;SDS011;15134;48.768;9.184;2024-03-22T05:11:40;856.42;;;731.78;;
27740;SDS011;15134;48.768;9.184;2024-03-22T05:14:06;842.37;;;729.33;;
27740;SDS011;15134;48.768;9.184;2024-03-22T05:16:32;840.73;;;723.57;;
27740;SDS011;15134;48.768;9.184;2024-03-22T05:18:58;840.83;;;722.70;;
27740;SDS011;15134;48.768;9.184;2024-03-22T05:21:24;842.38;;;724.42;;
27740;SDS011;15134;48.768;9.184;2024-03-22T05:23:49;838.17;;;721.60;;
27740;SDS011;15134;48.768;9.184;2024-03-22T05:26:15;840.10;;;726.73;;
27740;SDS011;15134;48.768;9.184;2024-03-22T05:28:41;841.13;;;726.38;;
27740;SDS011;15134;48.768;9.184;2024-03-22T05:31:07;844.88;;;730.33;;
27740;SDS011;15134;48.768;9.184;2024-03-22T05:33:33;842.40;;;728.93;;
27740;SDS011;15134;48.768;9.184;2024-03-22T05:35:59;843.47;;;734.72;;
27740;SDS011;15134;48.768;9.184;2024-03-22T05:38:24;841.33;;;731.20;;
27740;SDS011;15134;48.768;9.184;2024-03-22T05:40:50;839.42;;;726.38;;
27740;SDS011;15134;48.768;9.184;2024-03-22T05:43:16;839.97;;;723.28;;
27740;SDS011;15134;48.768;9.184;2024-03-22T05:45:41;842.67;;;725.83;;
27740;SDS011;15134;48.768;9.184;2024-03-22T05:48:07;840.60;;;727.97;;
27740;SDS011;15134;48.768;9.184;2024-03-22T05:50:33;838.60;;;720.53;;
27740;SDS011;15134;48.768;9.184;2024-03-22T05:52:59;840.45;;;724.78;;
27740;SDS011;15134;48.768;9.184;2024-03-22T05:55:24;836.10;;;714.08;;
27740;SDS011;15134;48.768;9.184;2024-03-22T05:57:52;837.63;;;719.30;;
27740;SDS011;15134;48.768;9.184;2024-03-22T06:00:18;837.80;;;719.75;;
27740;SDS011;15134;48.768;9.184;2024-03-22T06:02:44;840.43;;;722.30;;
27740;SDS011;15134;48.768;9.184;2024-03-22T06:05:09;838.55;;;721.15;;
27740;SDS011;15134;48.768;9.184;2024-03-22T06:07:35;840.50;;;724.42;;
27740;SDS011;15134;48.768;9.184;2024-03-22T06:10:07;838.33;;;721.55;;
27740;SDS011;15134;48.768;9.184;2024-03-22T06:12:34;840.33;;;725.45;;
27740;SDS011;15134;48.768;9.184;2024-03-22T06:15:01;843.30;;;735.00;;
27740;SDS011;15134;48.768;9.184;2024-03-22T06:17:31;841.55;;;731.22;;
27740;SDS011;15134;48.768;9.184;2024-03-22T06:20:00;847.55;;;742.97;;
27740;SDS011;15134;48.768;9.184;2024-03-22T06:22:26;845.72;;;742.50;;
27740;SDS011;15134;48.768;9.184;2024-03-22T06:24:52;848.72;;;748.17;;
27740;SDS011;15134;48.768;9.184;2024-03-22T06:27:19;848.17;;;746.20;;
27740;SDS011;15134;48.768;9.184;2024-03-22T06:29:44;847.33;;;744.60;;
27740;SDS011;15134;48.768;9.184;2024-03-22T06:32:11;848.10;;;744.40;;
27740;SDS011;15134;48.768;9.184;2024-03-22T06:34:37;851.28;;;747.80;;
27740;SDS011;15134;48.768;9.184;2024-03-22T06:37:03;850.95;;;749.78;;
27740;SDS011;15134;48.768;9.184;2024-03-22T06:39:29;849.17;;;748.40;;
27740;SDS011;15134;48.768;9.184;2024-03-22T06:41:55;849.67;;;752.53;;
27740;SDS011;15134;48.768;9.184;2024-03-22T06:44:21;848.88;;;751.17;;
27740;SDS011;15134;48.768;9.184;2024-03-22T06:46:47;848.88;;;750.35;;
27740;SDS011;15134;48.768;9.184;2024-03-22T06:49:12;854.28;;;758.05;;
27740;SDS011;15134;48.768;9.184;2024-03-22T06:51:38;854.03;;;759.33;;
27740;SDS011;15134;48.768;9.184;2024-03-22T06:54:04;861.30;;;766.00;;
27740;SDS011;15134;48.768;9.184;2024-03-22T06:56:30;867.57;;;772.07;;
27740;SDS011;15134;48.768;9.184;2024-03-22T06:58:55;872.83;;;777.28;;
27740;SDS011;15134;48.768;9.184;2024-03-22T07:01:21;876.50;;;780.50;;
27740;SDS011;15134;48.768;9.184;2024-03-22T07:03:47;888.25;;;791.42;;
27740;SDS011;15134;48.768;9.184;2024-03-22T07:06:14;892.85;;;796.03;;
27740;SDS011;15134;48.768;9.184;2024-03-22T07:08:40;895.72;;;798.90;;
27740;SDS011;15134;48.768;9.184;2024-03-22T07:11:06;907.10;;;809.90;;
27740;SDS011;15134;48.768;9.184;2024-03-22T07:13:32;910.63;;;813.20;;
27740;SDS011;15134;48.768;9.184;2024-03-22T07:15:58;908.47;;;811.17;;
27740;SDS011;15134;48.768;9.184;2024-03-22T07:18:24;916.47;;;819.00;;
27740;SDS011;15134;48.768;9.184;2024-03-22T07:20:49;913.60;;;816.28;;
27740;SDS011;15134;48.768;9.184;2024-03-22T07:23:15;909.72;;;812.80;;
27740;SDS011;15134;48.768;9.184;2024-03-22T07:25:41;914.97;;;817.78;;
27740;SDS011;15134;48.768;9.184;2024-03-22T07:28:13;916.45;;;819.30;;
27740;SDS011;15134;48.768;9.184;2024-03-22T07:30:39;912.33;;;814.95;;
27740;SDS011;15134;48.768;9.184;2024-03-22T07:33:05;916.15;;;818.58;;
27740;SDS011;15134;48.768;9.184;2024-03-22T07:35:30;913.80;;;816.03;;
27740;SDS011;15134;48.768;9.184;2024-03-22T07:37:56;917.92;;;820.63;;
27740;SDS011;15134;48.768;9.184;2024-03-22T07:40:22;916.80;;;819.45;;
27740;SDS011;15134;48.768;9.184;2024-03-22T07:42:48;923.17;;;825.28;;
27740;SDS011;15134;48.768;9.184;2024-03-22T07:45:13;932.50;;;834.42;;
27740;SDS011;15134;48.768;9.184;2024-03-22T07:47:39;942.00;;;843.47;;
27740;SDS011;15134;48.768;9.184;2024-03-22T07:50:07;953.38;;;854.45;;
27740;SDS011;15134;48.768;9.184;2024-03-22T07:52:33;972.67;;;872.58;;
27740;SDS011;15134;48.768;9.184;2024-03-22T07:54:59;999.05;;;897.92;;
27740;SDS011;15134;48.768;9.184;2024-03-22T07:57:27;1023.50;;;921.70;;
27740;SDS011;15134;48.768;9.184;2024-03-22T07:59:56;1054.47;;;951.43;;
27740;SDS011;15134;48.768;9.184;2024-03-22T08:02:22;1078.85;;;974.45;;
27740;SDS011;15134;48.768;9.184;2024-03-22T08:04:48;1115.10;;;999.90;;
27740;SDS011;15134;48.768;9.184;2024-03-22T08:07:14;1139.70;;;999.90;;
27740;SDS011;15134;48.768;9.184;2024-03-22T08:09:40;1167.13;;;999.90;;
27740;SDS011;15134;48.768;9.184;2024-03-22T08:12:06;1185.83;;;999.90;;
27740;SDS011;15134;48.768;9.184;2024-03-22T08:14:32;1206.27;;;999.90;;
27740;SDS011;15134;48.768;9.184;2024-03-22T08:16:57;1215.00;;;999.90;;
27740;SDS011;15134;48.768;9.184;2024-03-22T08:19:23;1241.37;;;999.90;;
27740;SDS011;15134;48.768;9.184;2024-03-22T08:21:49;1244.50;;;999.90;;
27740;SDS011;15134;48.768;9.184;2024-03-22T08:24:15;1245.00;;;999.90;;
27740;SDS011;15134;48.768;9.184;2024-03-22T08:26:40;1254.93;;;999.90;;
27740;SDS011;15134;48.768;9.184;2024-03-22T08:29:10;1266.10;;;999.90;;
27740;SDS011;15134;48.768;9.184;2024-03-22T08:31:36;1267.22;;;999.90;;
27740;SDS011;15134;48.768;9.184;2024-03-22T08:34:02;1271.93;;;999.90;;
27740;SDS011;15134;48.768;9.184;2024-03-22T08:36:30;1274.43;;;999.90;;
27740;SDS011;15134;48.768;9.184;2024-03-22T08:38:56;1273.90;;;999.90;;
27740;SDS011;15134;48.768;9.184;2024-03-22T08:41:22;1265.30;;;999.90;;
27740;SDS011;15134;48.768;9.184;2024-03-22T08:43:48;1257.93;;;999.90;;
27740;SDS011;15134;48.768;9.184;2024-03-22T08:46:14;1255.07;;;999.90;;
27740;SDS011;15134;48.768;9.184;2024-03-22T08:48:40;1253.00;;;999.90;;
27740;SDS011;15134;48.768;9.184;2024-03-22T08:51:06;1249.05;;;999.90;;
27740;SDS011;15134;48.768;9.184;2024-03-22T08:53:31;1239.57;;;999.90;;
27740;SDS011;15134;48.768;9.184;2024-03-22T08:55:57;1228.95;;;999.90;;
27740;SDS011;15134;48.768;9.184;2024-03-22T08:58:23;1219.17;;;999.90;;
27740;SDS011;15134;48.768;9.184;2024-03-22T09:00:49;1203.25;;;999.90;;
27740;SDS011;15134;48.768;9.184;2024-03-22T09:03:15;1195.43;;;999.90;;
27740;SDS011;15134;48.768;9.184;2024-03-22T09:05:41;1181.18;;;999.90;;
27740;SDS011;15134;48.768;9.184;2024-03-22T09:08:07;1175.75;;;999.90;;
27740;SDS011;15134;48.768;9.184;2024-03-22T09:10:32;1171.47;;;999.90;;
27740;SDS011;15134;48.768;9.184;2024-03-22T09:12:58;1164.07;;;999.90;;
27740;SDS011;15134;48.768;9.184;2024-03-22T09:15:24;1165.30;;;999.90;;
27740;SDS011;15134;48.768;9.184;2024-03-22T09:17:51;1161.00;;;999.90;;
27740;SDS011;15134;48.768;9.184;2024-03-22T09:20:17;1168.85;;;999.90;;
27740;SDS011;15134;48.768;9.184;2024-03-22T09:22:43;1173.95;;;999.90;;
27740;SDS011;15134;48.768;9.184;2024-03-22T09:25:09;1181.97;;;999.90;;
27740;SDS011;15134;48.768;9.184;2024-03-22T09:27:35;1188.78;;;999.90;;
27740;SDS011;15134;48.768;9.184;2024-03-22T09:30:01;1200.40;;;999.90;;
27740;SDS011;15134;48.768;9.184;2024-03-22T09:32:29;1203.30;;;999.90;;
27740;SDS011;15134;48.768;9.184;2024-03-22T09:34:55;1223.68;;;999.90;;
27740;SDS011;15134;48.768;9.184;2024-03-22T09:37:21;1224.90;;;999.90;;
27740;SDS011;15134;48.768;9.184;2024-03-22T09:39:46;1218.93;;;999.90;;
27740;SDS011;15134;48.768;9.184;2024-03-22T09:42:22;1215.33;;;999.90;;
27740;SDS011;15134;48.768;9.184;2024-03-22T09:44:50;1211.18;;;999.90;;
27740;SDS011;15134;48.768;9.184;2024-03-22T09:47:16;1204.13;;;999.90;;
27740;SDS011;15134;48.768;9.184;2024-03-22T09:49:43;1196.90;;;999.90;;
27740;SDS011;15134;48.768;9.184;2024-03-22T09:52:13;1189.45;;;999.90;;
27740;SDS011;15134;48.768;9.184;2024-03-22T09:54:43;1181.05;;;999.90;;
27740;SDS011;15134;48.768;9.184;2024-03-22T09:57:14;1178.93;;;999.90;;
27740;SDS011;15134;48.768;9.184;2024-03-22T09:59:41;1169.70;;;999.90;;
27740;SDS011;15134;48.768;9.184;2024-03-22T10:02:11;1164.50;;;999.90;;
27740;SDS011;15134;48.768;9.184;2024-03-22T10:04:40;1156.82;;;999.90;;
27740;SDS011;15134;48.768;9.184;2024-03-22T10:07:06;1151.30;;;999.90;;
27740;SDS011;15134;48.768;9.184;2024-03-22T10:09:35;1148.43;;;999.90;;
27740;SDS011;15134;48.768;9.184;2024-03-22T10:12:02;1133.38;;;999.90;;
27740;SDS011;15134;48.768;9.184;2024-03-22T10:14:29;1129.88;;;999.90;;
27740;SDS011;15134;48.768;9.184;2024-03-22T10:16:55;1134.78;;;999.90;;
27740;SDS011;15134;48.768;9.184;2024-03-22T10:19:22;1134.95;;;999.90;;
27740;SDS011;15134;48.768;9.184;2024-03-22T10:22:03;1132.13;;;999.90;;
27740;SDS011;15134;48.768;9.184;2024-03-22T10:24:30;1130.32;;;999.90;;
27740;SDS011;15134;48.768;9.184;2024-03-22T10:26:58;1120.15;;;999.90;;
27740;SDS011;15134;48.768;9.184;2024-03-22T10:29:24;1118.32;;;999.90;;
27740;SDS011;15134;48.768;9.184;2024-03-22T10:31:51;1117.40;;;999.90;;
27740;SDS011;15134;48.768;9.184;2024-03-22T10:34:17;1120.28;;;999.90;;
27740;SDS011;15134;48.768;9.184;2024-03-22T10:36:47;1119.93;;;999.90;;
27740;SDS011;15134;48.768;9.184;2024-03-22T10:39:16;1111.30;;;999.90;;
27740;SDS011;15134;48.768;9.184;2024-03-22T10:41:44;1112.82;;;999.90;;
27740;SDS011;15134;48.768;9.184;2024-03-22T10:44:11;1110.13;;;999.90;;
27740;SDS011;15134;48.768;9.184;2024-03-22T10:46:39;1113.75;;;999.90;;
27740;SDS011;15134;48.768;9.184;2024-03-22T10:49:16;1096.43;;;993.05;;
27740;SDS011;15134;48.768;9.184;2024-03-22T10:51:44;1096.43;;;993.17;;
27740;SDS011;15134;48.768;9.184;2024-03-22T10:54:13;1090.70;;;986.00;;
27740;SDS011;15134;48.768;9.184;2024-03-22T10:56:40;1098.75;;;995.08;;
27740;SDS011;15134;48.768;9.184;2024-03-22T10:59:07;1087.43;;;984.33;;
27740;SDS011;15134;48.768;9.184;2024-03-22T11:01:34;1081.65;;;979.35;;
27740;SDS011;15134;48.768;9.184;2024-03-22T11:04:07;1080.43;;;977.53;;
27740;SDS011;15134;48.768;9.184;2024-03-22T11:06:38;1077.68;;;975.05;;
27740;SDS011;15134;48.768;9.184;2024-03-22T11:09:04;1078.63;;;975.63;;
27740;SDS011;15134;48.768;9.184;2024-03-22T11:11:30;1080.20;;;977.42;;
27740;SDS011;15134;48.768;9.184;2024-03-22T11:14:03;1076.13;;;973.22;;
27740;SDS011;15134;48.768;9.184;2024-03-22T11:16:29;1067.10;;;964.90;;
27740;SDS011;15134;48.768;9.184;2024-03-22T11:18:55;1066.82;;;964.97;;
27740;SDS011;15134;48.768;9.184;2024-03-22T11:21:21;1064.47;;;962.92;;
27740;SDS011;15134;48.768;9.184;2024-03-22T11:23:48;1058.73;;;956.70;;
27740;SDS011;15134;48.768;9.184;2024-03-22T11:26:14;1073.53;;;970.10;;
27740;SDS011;15134;48.768;9.184;2024-03-22T11:28:39;1082.50;;;979.15;;
27740;SDS011;15134;48.768;9.184;2024-03-22T11:31:05;1070.65;;;968.28;;
27740;SDS011;15134;48.768;9.184;2024-03-22T11:33:31;1062.63;;;960.27;;
27740;SDS011;15134;48.768;9.184;2024-03-22T11:36:03;1066.55;;;964.33;;
27740;SDS011;15134;48.768;9.184;2024-03-22T11:38:30;1055.70;;;953.65;;
27740;SDS011;15134;48.768;9.184;2024-03-22T11:40:57;1056.70;;;954.72;;
27740;SDS011;15134;48.768;9.184;2024-03-22T11:43:25;1057.53;;;955.63;;
27740;SDS011;15134;48.768;9.184;2024-03-22T11:45:53;1047.57;;;946.33;;
27740;SDS011;15134;48.768;9.184;2024-03-22T11:48:19;1052.53;;;950.33;;
27740;SDS011;15134;48.768;9.184;2024-03-22T11:50:45;1053.20;;;951.35;;
27740;SDS011;15134;48.768;9.184;2024-03-22T11:53:11;1049.47;;;947.35;;
27740;SDS011;15134;48.768;9.184;2024-03-22T11:55:37;1048.75;;;946.90;;
27740;SDS011;15134;48.768;9.184;2024-03-22T11:58:03;1049.07;;;947.13;;
27740;SDS011;15134;48.768;9.184;2024-03-22T12:00:29;1055.25;;;953.50;;
27740;SDS011;15134;48.768;9.184;2024-03-22T12:02:56;1058.22;;;956.40;;
27740;SDS011;15134;48.768;9.184;2024-03-22T12:05:22;1055.65;;;953.80;;
27740;SDS011;15134;48.768;9.184;2024-03-22T12:07:51;1052.43;;;950.38;;
27740;SDS011;15134;48.768;9.184;2024-03-22T12:10:17;1048.45;;;946.90;;
27740;SDS011;15134;48.768;9.184;2024-03-22T12:12:43;1044.32;;;942.35;;
27740;SDS011;15134;48.768;9.184;2024-03-22T12:15:09;1039.07;;;937.28;;
27740;SDS011;15134;48.768;9.184;2024-03-22T12:17:35;1040.93;;;939.67;;
27740;SDS011;15134;48.768;9.184;2024-03-22T12:20:02;1037.65;;;936.55;;
27740;SDS011;15134;48.768;9.184;2024-03-22T12:22:29;1043.93;;;941.92;;
27740;SDS011;15134;48.768;9.184;2024-03-22T12:24:55;1051.20;;;949.08;;
27740;SDS011;15134;48.768;9.184;2024-03-22T12:27:22;1050.15;;;948.22;;
27740;SDS011;15134;48.768;9.184;2024-03-22T12:29:48;1049.05;;;947.08;;
27740;SDS011;15134;48.768;9.184;2024-03-22T12:32:13;1050.33;;;947.23;;
27740;SDS011;15134;48.768;9.184;2024-03-22T12:34:39;1055.47;;;953.42;;
27740;SDS011;15134;48.768;9.184;2024-03-22T12:37:05;1063.03;;;960.80;;
27740;SDS011;15134;48.768;9.184;2024-03-22T12:39:31;1069.65;;;966.78;;
27740;SDS011;15134;48.768;9.184;2024-03-22T12:41:57;1069.40;;;966.03;;
27740;SDS011;15134;48.768;9.184;2024-03-22T12:44:23;1073.28;;;970.88;;
27740;SDS011;15134;48.768;9.184;2024-03-22T12:46:49;1067.87;;;964.10;;
27740;SDS011;15134;48.768;9.184;2024-03-22T12:49:16;1072.47;;;969.47;;
27740;SDS011;15134;48.768;9.184;2024-03-22T12:51:42;1066.22;;;963.72;;
27740;SDS011;15134;48.768;9.184;2024-03-22T12:54:09;1073.28;;;970.67;;
27740;SDS011;15134;48.768;9.184;2024-03-22T12:56:35;1075.20;;;972.40;;
27740;SDS011;15134;48.768;9.184;2024-03-22T12:59:04;1078.60;;;975.88;;
27740;SDS011;15134;48.768;9.184;2024-03-22T13:01:30;1065.93;;;963.65;;
27740;SDS011;15134;48.768;9.184;2024-03-22T13:03:56;1069.30;;;966.88;;
27740;SDS011;15134;48.768;9.184;2024-03-22T13:06:22;1064.28;;;961.95;;
27740;SDS011;15134;48.768;9.184;2024-03-22T13:08:47;1067.40;;;964.78;;
27740;SDS011;15134;48.768;9.184;2024-03-22T13:11:13;1066.67;;;964.47;;
27740;SDS011;15134;48.768;9.184;2024-03-22T13:13:39;1069.18;;;967.03;;
27740;SDS011;15134;48.768;9.184;2024-03-22T13:16:05;1069.60;;;967.28;;
27740;SDS011;15134;48.768;9.184;2024-03-22T13:18:32;1058.88;;;957.03;;
27740;SDS011;15134;48.768;9.184;2024-03-22T13:20:57;1058.45;;;956.63;;
27740;SDS011;15134;48.768;9.184;2024-03-22T13:23:23;1057.13;;;955.47;;
27740;SDS011;15134;48.768;9.184;2024-03-22T13:25:49;1061.88;;;960.03;;
27740;SDS011;15134;48.768;9.184;2024-03-22T13:28:15;1068.43;;;965.72;;
27740;SDS011;15134;48.768;9.184;2024-03-22T13:30:45;1064.20;;;961.92;;
27740;SDS011;15134;48.768;9.184;2024-03-22T13:33:11;1064.05;;;961.63;;
27740;SDS011;15134;48.768;9.184;2024-03-22T13:35:37;1070.28;;;967.00;;
27740;SDS011;15134;48.768;9.184;2024-03-22T13:38:02;1062.27;;;959.90;;
27740;SDS011;15134;48.768;9.184;2024-03-22T13:40:28;1067.47;;;964.88;;
27740;SDS011;15134;48.768;9.184;2024-03-22T13:42:54;1062.60;;;959.72;;
27740;SDS011;15134;48.768;9.184;2024-03-22T13:45:20;1059.90;;;957.75;;
27740;SDS011;15134;48.768;9.184;2024-03-22T13:47:46;1058.63;;;956.63;;